sensor_id;sensor_type;location;lat;lon;timestamp;P1;durP1;ratioP1;P2;durP2;ratioP2
72113;SDS011;59989;46.220;19.888;2022-09-09T00:02:04;17.25;;;8.63;;
72113;SDS011;59989;46.220;19.888;2022-09-09T00:05:19;17.73;;;9.23;;
72113;SDS011;59989;46.220;19.888;2022-09-09T00:08:51;21.02;;;9.05;;
72113;SDS011;59989;46.220;19.888;2022-09-09T00:12:02;21.83;;;10.43;;
72113;SDS011;59989;46.220;19.888;2022-09-09T00:15:14;19.73;;;10.47;;
72113;SDS011;59989;46.220;19.888;2022-09-09T00:19:07;19.23;;;10.73;;
72113;SDS011;59989;46.220;19.888;2022-09-09T00:22:20;19.70;;;10.85;;
72113;SDS011;59989;46.220;19.888;2022-09-09T00:25:29;19.02;;;10.82;;
72113;SDS011;59989;46.220;19.888;2022-09-09T00:29:10;23.70;;;10.73;;
72113;SDS011;59989;46.220;19.888;2022-09-09T00:32:22;18.57;;;10.57;;
72113;SDS011;59989;46.220;19.888;2022-09-09T00:35:31;16.35;;;9.52;;
72113;SDS011;59989;46.220;19.888;2022-09-09T00:38:37;17.48;;;10.80;;
72113;SDS011;59989;46.220;19.888;2022-09-09T00:41:55;19.27;;;9.90;;
72113;SDS011;59989;46.220;19.888;2022-09-09T01:05:33;18.60;;;10.80;;
72113;SDS011;59989;46.220;19.888;2022-09-09T01:08:57;20.80;;;10.55;;
72113;SDS011;59989;46.220;19.888;2022-09-09T01:12:23;17.48;;;10.50;;
72113;SDS011;59989;46.220;19.888;2022-09-09T01:15:30;20.45;;;11.23;;
72113;SDS011;59989;46.220;19.888;2022-09-09T01:18:36;22.25;;;11.50;;
72113;SDS011;59989;46.220;19.888;2022-09-09T01:21:43;20.13;;;10.97;;
72113;SDS011;59989;46.220;19.888;2022-09-09T01:28:40;20.05;;;11.43;;
72113;SDS011;59989;46.220;19.888;2022-09-09T01:31:55;20.02;;;10.35;;
72113;SDS011;59989;46.220;19.888;2022-09-09T01:35:00;20.02;;;10.57;;
72113;SDS011;59989;46.220;19.888;2022-09-09T01:38:04;19.53;;;10.40;;
72113;SDS011;59989;46.220;19.888;2022-09-09T01:41:08;20.77;;;10.27;;
72113;SDS011;59989;46.220;19.888;2022-09-09T01:44:25;18.83;;;10.23;;
72113;SDS011;59989;46.220;19.888;2022-09-09T01:47:28;19.60;;;9.68;;
72113;SDS011;59989;46.220;19.888;2022-09-09T01:50:43;15.77;;;8.93;;
72113;SDS011;59989;46.220;19.888;2022-09-09T01:53:47;17.43;;;9.20;;
72113;SDS011;59989;46.220;19.888;2022-09-09T01:56:55;15.07;;;8.70;;
72113;SDS011;59989;46.220;19.888;2022-09-09T02:00:08;20.05;;;9.85;;
72113;SDS011;59989;46.220;19.888;2022-09-09T02:06:48;17.88;;;10.73;;
72113;SDS011;59989;46.220;19.888;2022-09-09T02:10:11;18.50;;;10.10;;
72113;SDS011;59989;46.220;19.888;2022-09-09T02:13:27;21.10;;;11.45;;
72113;SDS011;59989;46.220;19.888;2022-09-09T02:16:37;21.67;;;12.00;;
72113;SDS011;59989;46.220;19.888;2022-09-09T02:19:46;19.30;;;10.82;;
72113;SDS011;59989;46.220;19.888;2022-09-09T02:23:00;17.55;;;10.43;;
72113;SDS011;59989;46.220;19.888;2022-09-09T02:26:05;20.07;;;11.23;;
72113;SDS011;59989;46.220;19.888;2022-09-09T02:29:12;20.88;;;12.70;;
72113;SDS011;59989;46.220;19.888;2022-09-09T02:32:20;22.88;;;13.43;;
72113;SDS011;59989;46.220;19.888;2022-09-09T02:35:25;24.15;;;13.02;;
72113;SDS011;59989;46.220;19.888;2022-09-09T02:38:31;26.83;;;12.73;;
72113;SDS011;59989;46.220;19.888;2022-09-09T02:41:43;27.93;;;14.23;;
72113;SDS011;59989;46.220;19.888;2022-09-09T02:44:46;23.08;;;13.43;;
72113;SDS011;59989;46.220;19.888;2022-09-09T02:54:37;22.92;;;13.93;;
72113;SDS011;59989;46.220;19.888;2022-09-09T02:57:45;23.07;;;13.60;;
72113;SDS011;59989;46.220;19.888;2022-09-09T03:00:51;24.60;;;13.98;;
72113;SDS011;59989;46.220;19.888;2022-09-09T03:03:55;26.10;;;13.60;;
72113;SDS011;59989;46.220;19.888;2022-09-09T03:06:58;27.23;;;14.95;;
72113;SDS011;59989;46.220;19.888;2022-09-09T03:10:01;27.17;;;15.50;;
72113;SDS011;59989;46.220;19.888;2022-09-09T03:13:05;26.83;;;15.37;;
72113;SDS011;59989;46.220;19.888;2022-09-09T03:16:12;28.90;;;15.27;;
72113;SDS011;59989;46.220;19.888;2022-09-09T03:19:18;28.98;;;15.13;;
72113;SDS011;59989;46.220;19.888;2022-09-09T03:22:22;28.90;;;15.63;;
72113;SDS011;59989;46.220;19.888;2022-09-09T03:25:24;31.15;;;16.25;;
72113;SDS011;59989;46.220;19.888;2022-09-09T03:28:28;31.73;;;16.47;;
72113;SDS011;59989;46.220;19.888;2022-09-09T03:31:35;32.33;;;17.30;;
72113;SDS011;59989;46.220;19.888;2022-09-09T03:34:38;35.92;;;17.33;;
72113;SDS011;59989;46.220;19.888;2022-09-09T03:37:45;36.00;;;17.23;;
72113;SDS011;59989;46.220;19.888;2022-09-09T03:40:49;33.22;;;18.27;;
72113;SDS011;59989;46.220;19.888;2022-09-09T03:44:00;28.63;;;16.43;;
72113;SDS011;59989;46.220;19.888;2022-09-09T03:47:06;27.52;;;17.23;;
72113;SDS011;59989;46.220;19.888;2022-09-09T03:50:09;26.92;;;16.10;;
72113;SDS011;59989;46.220;19.888;2022-09-09T03:53:17;25.40;;;16.20;;
72113;SDS011;59989;46.220;19.888;2022-09-09T03:56:21;29.87;;;15.87;;
72113;SDS011;59989;46.220;19.888;2022-09-09T03:59:24;28.70;;;16.43;;
72113;SDS011;59989;46.220;19.888;2022-09-09T04:02:27;32.20;;;16.08;;
72113;SDS011;59989;46.220;19.888;2022-09-09T04:05:29;28.55;;;15.55;;
72113;SDS011;59989;46.220;19.888;2022-09-09T04:08:33;26.98;;;15.10;;
72113;SDS011;59989;46.220;19.888;2022-09-09T04:11:36;24.10;;;14.97;;
72113;SDS011;59989;46.220;19.888;2022-09-09T04:14:39;23.73;;;14.00;;
72113;SDS011;59989;46.220;19.888;2022-09-09T04:17:43;25.27;;;13.63;;
72113;SDS011;59989;46.220;19.888;2022-09-09T04:20:50;24.50;;;14.95;;
72113;SDS011;59989;46.220;19.888;2022-09-09T04:23:55;20.45;;;12.35;;
72113;SDS011;59989;46.220;19.888;2022-09-09T04:26:59;26.33;;;12.87;;
72113;SDS011;59989;46.220;19.888;2022-09-09T04:30:02;22.27;;;13.70;;
72113;SDS011;59989;46.220;19.888;2022-09-09T04:33:07;23.95;;;13.13;;
72113;SDS011;59989;46.220;19.888;2022-09-09T04:36:11;22.65;;;13.25;;
72113;SDS011;59989;46.220;19.888;2022-09-09T04:39:15;20.33;;;12.02;;
72113;SDS011;59989;46.220;19.888;2022-09-09T04:42:18;21.03;;;10.53;;
72113;SDS011;59989;46.220;19.888;2022-09-09T04:45:22;16.83;;;10.13;;
72113;SDS011;59989;46.220;19.888;2022-09-09T04:48:25;17.00;;;8.93;;
72113;SDS011;59989;46.220;19.888;2022-09-09T04:51:27;14.43;;;8.70;;
72113;SDS011;59989;46.220;19.888;2022-09-09T04:54:30;14.80;;;8.48;;
72113;SDS011;59989;46.220;19.888;2022-09-09T04:57:34;17.23;;;8.77;;
72113;SDS011;59989;46.220;19.888;2022-09-09T05:00:37;12.03;;;6.90;;
72113;SDS011;59989;46.220;19.888;2022-09-09T05:03:42;15.50;;;8.38;;
72113;SDS011;59989;46.220;19.888;2022-09-09T05:06:50;13.77;;;7.72;;
72113;SDS011;59989;46.220;19.888;2022-09-09T05:09:53;16.40;;;7.55;;
72113;SDS011;59989;46.220;19.888;2022-09-09T05:12:56;15.27;;;8.03;;
72113;SDS011;59989;46.220;19.888;2022-09-09T05:16:01;15.63;;;8.90;;
72113;SDS011;59989;46.220;19.888;2022-09-09T05:19:03;15.63;;;8.82;;
72113;SDS011;59989;46.220;19.888;2022-09-09T05:22:19;18.13;;;10.52;;
72113;SDS011;59989;46.220;19.888;2022-09-09T05:25:24;16.48;;;9.38;;
72113;SDS011;59989;46.220;19.888;2022-09-09T05:28:29;16.43;;;8.47;;
72113;SDS011;59989;46.220;19.888;2022-09-09T05:31:32;14.20;;;7.30;;
72113;SDS011;59989;46.220;19.888;2022-09-09T05:34:42;12.77;;;6.97;;
72113;SDS011;59989;46.220;19.888;2022-09-09T05:37:45;14.07;;;7.80;;
72113;SDS011;59989;46.220;19.888;2022-09-09T05:40:48;24.55;;;13.77;;
72113;SDS011;59989;46.220;19.888;2022-09-09T05:43:52;21.38;;;11.77;;
72113;SDS011;59989;46.220;19.888;2022-09-09T05:46:55;20.67;;;11.53;;
72113;SDS011;59989;46.220;19.888;2022-09-09T05:49:58;12.98;;;7.28;;
72113;SDS011;59989;46.220;19.888;2022-09-09T05:53:00;11.65;;;6.00;;
72113;SDS011;59989;46.220;19.888;2022-09-09T05:56:05;12.68;;;5.72;;
72113;SDS011;59989;46.220;19.888;2022-09-09T05:59:17;14.05;;;7.82;;
72113;SDS011;59989;46.220;19.888;2022-09-09T06:02:20;11.53;;;5.93;;
72113;SDS011;59989;46.220;19.888;2022-09-09T06:05:24;11.57;;;5.97;;
72113;SDS011;59989;46.220;19.888;2022-09-09T06:08:29;13.30;;;7.30;;
72113;SDS011;59989;46.220;19.888;2022-09-09T06:11:32;11.00;;;5.75;;
72113;SDS011;59989;46.220;19.888;2022-09-09T06:14:35;9.88;;;5.47;;
72113;SDS011;59989;46.220;19.888;2022-09-09T06:17:39;11.07;;;5.50;;
72113;SDS011;59989;46.220;19.888;2022-09-09T06:20:41;12.43;;;5.40;;
72113;SDS011;59989;46.220;19.888;2022-09-09T06:23:44;10.63;;;5.50;;
72113;SDS011;59989;46.220;19.888;2022-09-09T06:26:47;11.10;;;5.53;;
72113;SDS011;59989;46.220;19.888;2022-09-09T06:30:02;14.30;;;5.28;;
72113;SDS011;59989;46.220;19.888;2022-09-09T06:33:06;10.03;;;4.90;;
72113;SDS011;59989;46.220;19.888;2022-09-09T06:36:12;14.75;;;5.10;;
72113;SDS011;59989;46.220;19.888;2022-09-09T06:39:17;9.80;;;5.13;;
72113;SDS011;59989;46.220;19.888;2022-09-09T06:42:20;10.65;;;5.20;;
72113;SDS011;59989;46.220;19.888;2022-09-09T06:45:53;13.38;;;5.53;;
72113;SDS011;59989;46.220;19.888;2022-09-09T06:49:00;11.57;;;5.90;;
72113;SDS011;59989;46.220;19.888;2022-09-09T06:52:02;11.73;;;5.90;;
72113;SDS011;59989;46.220;19.888;2022-09-09T06:55:06;13.45;;;6.55;;
72113;SDS011;59989;46.220;19.888;2022-09-09T06:58:09;12.35;;;6.10;;
72113;SDS011;59989;46.220;19.888;2022-09-09T07:01:13;12.80;;;6.82;;
72113;SDS011;59989;46.220;19.888;2022-09-09T07:04:16;12.70;;;6.27;;
72113;SDS011;59989;46.220;19.888;2022-09-09T07:07:19;12.93;;;6.68;;
72113;SDS011;59989;46.220;19.888;2022-09-09T07:10:22;12.30;;;6.10;;
72113;SDS011;59989;46.220;19.888;2022-09-09T07:13:25;14.93;;;6.30;;
72113;SDS011;59989;46.220;19.888;2022-09-09T07:16:30;11.60;;;5.93;;
72113;SDS011;59989;46.220;19.888;2022-09-09T07:19:36;12.77;;;7.10;;
72113;SDS011;59989;46.220;19.888;2022-09-09T07:22:40;15.25;;;7.70;;
72113;SDS011;59989;46.220;19.888;2022-09-09T07:25:45;13.18;;;7.28;;
72113;SDS011;59989;46.220;19.888;2022-09-09T07:28:50;16.92;;;6.82;;
72113;SDS011;59989;46.220;19.888;2022-09-09T07:31:54;12.17;;;6.57;;
72113;SDS011;59989;46.220;19.888;2022-09-09T07:35:02;14.40;;;7.10;;
72113;SDS011;59989;46.220;19.888;2022-09-09T07:38:05;13.20;;;6.88;;
72113;SDS011;59989;46.220;19.888;2022-09-09T07:41:09;12.85;;;6.68;;
72113;SDS011;59989;46.220;19.888;2022-09-09T07:44:15;12.88;;;6.55;;
72113;SDS011;59989;46.220;19.888;2022-09-09T07:47:23;14.75;;;6.72;;
72113;SDS011;59989;46.220;19.888;2022-09-09T07:50:27;12.63;;;6.23;;
72113;SDS011;59989;46.220;19.888;2022-09-09T07:53:29;14.38;;;5.63;;
72113;SDS011;59989;46.220;19.888;2022-09-09T07:56:33;13.40;;;6.18;;
72113;SDS011;59989;46.220;19.888;2022-09-09T07:59:36;14.07;;;7.20;;
72113;SDS011;59989;46.220;19.888;2022-09-09T08:02:39;13.55;;;5.78;;
72113;SDS011;59989;46.220;19.888;2022-09-09T08:05:44;11.03;;;4.93;;
72113;SDS011;59989;46.220;19.888;2022-09-09T08:08:49;11.93;;;5.72;;
72113;SDS011;59989;46.220;19.888;2022-09-09T08:11:53;9.88;;;5.32;;
72113;SDS011;59989;46.220;19.888;2022-09-09T08:14:55;12.23;;;4.80;;
72113;SDS011;59989;46.220;19.888;2022-09-09T08:18:02;9.98;;;4.88;;
72113;SDS011;59989;46.220;19.888;2022-09-09T08:21:13;9.60;;;4.53;;
72113;SDS011;59989;46.220;19.888;2022-09-09T08:24:19;10.10;;;5.25;;
72113;SDS011;59989;46.220;19.888;2022-09-09T08:27:24;11.15;;;5.20;;
72113;SDS011;59989;46.220;19.888;2022-09-09T08:30:28;9.13;;;4.50;;
72113;SDS011;59989;46.220;19.888;2022-09-09T08:33:32;10.80;;;4.57;;
72113;SDS011;59989;46.220;19.888;2022-09-09T08:36:39;8.40;;;4.10;;
72113;SDS011;59989;46.220;19.888;2022-09-09T08:39:47;10.85;;;4.65;;
72113;SDS011;59989;46.220;19.888;2022-09-09T08:42:55;11.73;;;4.25;;
72113;SDS011;59989;46.220;19.888;2022-09-09T08:46:11;10.32;;;4.47;;
72113;SDS011;59989;46.220;19.888;2022-09-09T08:56:10;9.68;;;3.50;;
72113;SDS011;59989;46.220;19.888;2022-09-09T08:59:20;8.68;;;3.90;;
72113;SDS011;59989;46.220;19.888;2022-09-09T09:02:34;7.95;;;3.00;;
72113;SDS011;59989;46.220;19.888;2022-09-09T09:06:01;9.50;;;2.83;;
72113;SDS011;59989;46.220;19.888;2022-09-09T09:09:12;11.70;;;2.90;;
72113;SDS011;59989;46.220;19.888;2022-09-09T09:12:26;12.95;;;3.28;;
72113;SDS011;59989;46.220;19.888;2022-09-09T09:15:33;8.13;;;2.78;;
72113;SDS011;59989;46.220;19.888;2022-09-09T09:18:41;8.63;;;3.10;;
72113;SDS011;59989;46.220;19.888;2022-09-09T09:21:46;8.07;;;3.10;;
72113;SDS011;59989;46.220;19.888;2022-09-09T09:28:02;6.97;;;2.95;;
72113;SDS011;59989;46.220;19.888;2022-09-09T09:31:51;7.43;;;3.10;;
72113;SDS011;59989;46.220;19.888;2022-09-09T09:34:58;9.27;;;2.70;;
72113;SDS011;59989;46.220;19.888;2022-09-09T09:38:25;10.60;;;3.15;;
72113;SDS011;59989;46.220;19.888;2022-09-09T09:41:49;9.33;;;3.00;;
72113;SDS011;59989;46.220;19.888;2022-09-09T09:44:54;12.15;;;3.33;;
72113;SDS011;59989;46.220;19.888;2022-09-09T09:47:58;8.15;;;2.67;;
72113;SDS011;59989;46.220;19.888;2022-09-09T09:51:11;7.05;;;2.30;;
72113;SDS011;59989;46.220;19.888;2022-09-09T09:54:23;7.97;;;2.70;;
72113;SDS011;59989;46.220;19.888;2022-09-09T09:57:36;7.40;;;2.80;;
72113;SDS011;59989;46.220;19.888;2022-09-09T10:00:49;6.50;;;2.10;;
72113;SDS011;59989;46.220;19.888;2022-09-09T10:03:57;5.35;;;1.50;;
72113;SDS011;59989;46.220;19.888;2022-09-09T10:07:27;5.82;;;2.15;;
72113;SDS011;59989;46.220;19.888;2022-09-09T10:14:15;13.20;;;2.73;;
72113;SDS011;59989;46.220;19.888;2022-09-09T10:21:00;7.90;;;2.38;;
72113;SDS011;59989;46.220;19.888;2022-09-09T10:35:08;6.05;;;1.92;;
72113;SDS011;59989;46.220;19.888;2022-09-09T10:38:13;8.38;;;2.60;;
72113;SDS011;59989;46.220;19.888;2022-09-09T10:41:32;8.63;;;1.98;;
72113;SDS011;59989;46.220;19.888;2022-09-09T10:48:28;8.53;;;2.60;;
72113;SDS011;59989;46.220;19.888;2022-09-09T10:58:02;7.03;;;2.17;;
72113;SDS011;59989;46.220;19.888;2022-09-09T11:01:17;10.70;;;2.55;;
72113;SDS011;59989;46.220;19.888;2022-09-09T11:14:39;6.47;;;2.05;;
72113;SDS011;59989;46.220;19.888;2022-09-09T11:17:56;5.82;;;2.30;;
72113;SDS011;59989;46.220;19.888;2022-09-09T11:21:03;8.40;;;2.60;;
72113;SDS011;59989;46.220;19.888;2022-09-09T11:24:23;6.32;;;2.38;;
72113;SDS011;59989;46.220;19.888;2022-09-09T11:27:30;5.93;;;2.20;;
72113;SDS011;59989;46.220;19.888;2022-09-09T11:31:29;7.43;;;2.20;;
72113;SDS011;59989;46.220;19.888;2022-09-09T11:34:17;5.90;;;2.35;;
72113;SDS011;59989;46.220;19.888;2022-09-09T11:37:37;6.73;;;2.10;;
72113;SDS011;59989;46.220;19.888;2022-09-09T11:41:01;5.80;;;2.15;;
72113;SDS011;59989;46.220;19.888;2022-09-09T11:44:10;6.95;;;2.17;;
72113;SDS011;59989;46.220;19.888;2022-09-09T11:47:19;6.70;;;2.00;;
72113;SDS011;59989;46.220;19.888;2022-09-09T11:50:36;5.80;;;1.70;;
72113;SDS011;59989;46.220;19.888;2022-09-09T11:57:32;7.60;;;2.33;;
72113;SDS011;59989;46.220;19.888;2022-09-09T12:00:47;5.57;;;2.20;;
72113;SDS011;59989;46.220;19.888;2022-09-09T12:03:51;5.97;;;2.00;;
72113;SDS011;59989;46.220;19.888;2022-09-09T12:07:05;6.20;;;2.50;;
72113;SDS011;59989;46.220;19.888;2022-09-09T12:10:52;7.77;;;2.20;;
72113;SDS011;59989;46.220;19.888;2022-09-09T12:13:57;6.75;;;1.92;;
72113;SDS011;59989;46.220;19.888;2022-09-09T12:17:20;6.13;;;1.60;;
72113;SDS011;59989;46.220;19.888;2022-09-09T12:23:55;5.45;;;1.98;;
72113;SDS011;59989;46.220;19.888;2022-09-09T12:31:17;7.63;;;2.17;;
72113;SDS011;59989;46.220;19.888;2022-09-09T12:37:58;5.70;;;2.60;;
72113;SDS011;59989;46.220;19.888;2022-09-09T12:41:03;5.85;;;2.30;;
72113;SDS011;59989;46.220;19.888;2022-09-09T12:44:08;8.13;;;2.40;;
72113;SDS011;59989;46.220;19.888;2022-09-09T12:47:11;5.40;;;2.42;;
72113;SDS011;59989;46.220;19.888;2022-09-09T12:50:25;5.60;;;2.30;;
72113;SDS011;59989;46.220;19.888;2022-09-09T12:53:31;5.75;;;2.50;;
72113;SDS011;59989;46.220;19.888;2022-09-09T12:56:45;6.03;;;2.30;;
72113;SDS011;59989;46.220;19.888;2022-09-09T12:59:49;5.60;;;2.40;;
72113;SDS011;59989;46.220;19.888;2022-09-09T13:02:55;5.90;;;2.72;;
72113;SDS011;59989;46.220;19.888;2022-09-09T13:06:10;6.45;;;2.50;;
72113;SDS011;59989;46.220;19.888;2022-09-09T13:09:14;5.50;;;2.30;;
72113;SDS011;59989;46.220;19.888;2022-09-09T13:12:22;6.15;;;2.50;;
72113;SDS011;59989;46.220;19.888;2022-09-09T13:15:26;6.00;;;2.50;;
72113;SDS011;59989;46.220;19.888;2022-09-09T13:18:31;6.55;;;2.70;;
72113;SDS011;59989;46.220;19.888;2022-09-09T13:21:37;5.32;;;2.40;;
72113;SDS011;59989;46.220;19.888;2022-09-09T13:24:40;7.38;;;2.50;;
72113;SDS011;59989;46.220;19.888;2022-09-09T13:27:51;7.40;;;2.85;;
72113;SDS011;59989;46.220;19.888;2022-09-09T13:31:00;6.93;;;2.50;;
72113;SDS011;59989;46.220;19.888;2022-09-09T13:37:33;7.32;;;2.75;;
72113;SDS011;59989;46.220;19.888;2022-09-09T13:40:38;5.75;;;2.80;;
72113;SDS011;59989;46.220;19.888;2022-09-09T13:43:44;5.85;;;2.70;;
72113;SDS011;59989;46.220;19.888;2022-09-09T13:47:03;5.80;;;2.37;;
72113;SDS011;59989;46.220;19.888;2022-09-09T13:50:22;7.28;;;1.60;;
72113;SDS011;59989;46.220;19.888;2022-09-09T13:53:31;5.88;;;1.60;;
72113;SDS011;59989;46.220;19.888;2022-09-09T13:56:33;6.78;;;1.88;;
72113;SDS011;59989;46.220;19.888;2022-09-09T13:59:37;5.05;;;1.60;;
72113;SDS011;59989;46.220;19.888;2022-09-09T14:02:59;8.23;;;1.50;;
72113;SDS011;59989;46.220;19.888;2022-09-09T14:06:04;7.68;;;1.50;;
72113;SDS011;59989;46.220;19.888;2022-09-09T14:09:07;6.20;;;1.80;;
72113;SDS011;59989;46.220;19.888;2022-09-09T14:12:17;5.63;;;1.70;;
72113;SDS011;59989;46.220;19.888;2022-09-09T14:15:20;5.75;;;2.20;;
72113;SDS011;59989;46.220;19.888;2022-09-09T14:18:23;5.50;;;2.30;;
72113;SDS011;59989;46.220;19.888;2022-09-09T14:21:27;6.30;;;2.10;;
72113;SDS011;59989;46.220;19.888;2022-09-09T14:24:30;7.97;;;2.50;;
72113;SDS011;59989;46.220;19.888;2022-09-09T14:27:33;5.63;;;2.25;;
72113;SDS011;59989;46.220;19.888;2022-09-09T14:30:36;5.13;;;1.40;;
72113;SDS011;59989;46.220;19.888;2022-09-09T14:33:40;6.20;;;1.30;;
72113;SDS011;59989;46.220;19.888;2022-09-09T14:36:42;4.40;;;1.20;;
72113;SDS011;59989;46.220;19.888;2022-09-09T14:39:46;4.28;;;1.23;;
72113;SDS011;59989;46.220;19.888;2022-09-09T14:42:49;3.22;;;1.02;;
72113;SDS011;59989;46.220;19.888;2022-09-09T14:45:52;4.95;;;1.30;;
72113;SDS011;59989;46.220;19.888;2022-09-09T14:48:54;3.87;;;1.17;;
72113;SDS011;59989;46.220;19.888;2022-09-09T14:52:01;5.28;;;1.40;;
72113;SDS011;59989;46.220;19.888;2022-09-09T14:55:04;4.13;;;1.27;;
72113;SDS011;59989;46.220;19.888;2022-09-09T14:58:07;6.40;;;1.40;;
72113;SDS011;59989;46.220;19.888;2022-09-09T15:01:13;5.55;;;2.10;;
72113;SDS011;59989;46.220;19.888;2022-09-09T15:04:18;4.27;;;1.50;;
72113;SDS011;59989;46.220;19.888;2022-09-09T15:07:20;5.63;;;2.10;;
72113;SDS011;59989;46.220;19.888;2022-09-09T15:10:24;7.25;;;1.50;;
72113;SDS011;59989;46.220;19.888;2022-09-09T15:13:28;5.72;;;2.30;;
72113;SDS011;59989;46.220;19.888;2022-09-09T15:16:31;5.40;;;2.40;;
72113;SDS011;59989;46.220;19.888;2022-09-09T15:19:34;6.53;;;2.30;;
72113;SDS011;59989;46.220;19.888;2022-09-09T15:22:36;4.35;;;1.15;;
72113;SDS011;59989;46.220;19.888;2022-09-09T15:25:55;3.45;;;1.08;;
72113;SDS011;59989;46.220;19.888;2022-09-09T15:28:58;4.00;;;1.15;;
72113;SDS011;59989;46.220;19.888;2022-09-09T15:32:03;4.13;;;1.10;;
72113;SDS011;59989;46.220;19.888;2022-09-09T15:35:06;3.73;;;0.90;;
72113;SDS011;59989;46.220;19.888;2022-09-09T15:38:09;4.35;;;1.00;;
72113;SDS011;59989;46.220;19.888;2022-09-09T15:41:12;4.22;;;0.90;;
72113;SDS011;59989;46.220;19.888;2022-09-09T15:44:15;3.55;;;0.90;;
72113;SDS011;59989;46.220;19.888;2022-09-09T15:47:18;3.60;;;0.90;;
72113;SDS011;59989;46.220;19.888;2022-09-09T15:50:20;3.63;;;0.93;;
72113;SDS011;59989;46.220;19.888;2022-09-09T15:53:24;4.88;;;1.00;;
72113;SDS011;59989;46.220;19.888;2022-09-09T15:56:27;5.53;;;0.80;;
72113;SDS011;59989;46.220;19.888;2022-09-09T15:59:32;4.03;;;0.88;;
72113;SDS011;59989;46.220;19.888;2022-09-09T16:02:36;3.40;;;0.95;;
72113;SDS011;59989;46.220;19.888;2022-09-09T16:05:39;4.63;;;1.20;;
72113;SDS011;59989;46.220;19.888;2022-09-09T16:08:43;6.97;;;1.60;;
72113;SDS011;59989;46.220;19.888;2022-09-09T16:11:47;5.20;;;1.50;;
72113;SDS011;59989;46.220;19.888;2022-09-09T16:14:50;6.07;;;2.15;;
72113;SDS011;59989;46.220;19.888;2022-09-09T16:17:53;6.30;;;1.52;;
72113;SDS011;59989;46.220;19.888;2022-09-09T16:20:56;5.23;;;1.70;;
72113;SDS011;59989;46.220;19.888;2022-09-09T16:23:59;5.13;;;1.40;;
72113;SDS011;59989;46.220;19.888;2022-09-09T16:27:03;5.18;;;1.63;;
72113;SDS011;59989;46.220;19.888;2022-09-09T16:30:05;9.65;;;2.20;;
72113;SDS011;59989;46.220;19.888;2022-09-09T16:33:08;5.95;;;1.90;;
72113;SDS011;59989;46.220;19.888;2022-09-09T16:36:13;5.47;;;1.00;;
72113;SDS011;59989;46.220;19.888;2022-09-09T16:39:18;6.03;;;1.10;;
72113;SDS011;59989;46.220;19.888;2022-09-09T16:42:21;5.53;;;1.45;;
72113;SDS011;59989;46.220;19.888;2022-09-09T16:45:25;4.07;;;0.98;;
72113;SDS011;59989;46.220;19.888;2022-09-09T16:48:34;6.05;;;1.20;;
72113;SDS011;59989;46.220;19.888;2022-09-09T16:51:37;4.40;;;1.07;;
72113;SDS011;59989;46.220;19.888;2022-09-09T16:54:41;5.20;;;1.20;;
72113;SDS011;59989;46.220;19.888;2022-09-09T16:57:43;5.60;;;1.17;;
72113;SDS011;59989;46.220;19.888;2022-09-09T17:00:46;5.22;;;1.20;;
72113;SDS011;59989;46.220;19.888;2022-09-09T17:03:55;6.85;;;1.27;;
72113;SDS011;59989;46.220;19.888;2022-09-09T17:07:02;6.00;;;1.53;;
72113;SDS011;59989;46.220;19.888;2022-09-09T17:10:05;4.80;;;1.30;;
72113;SDS011;59989;46.220;19.888;2022-09-09T17:13:08;11.90;;;4.75;;
72113;SDS011;59989;46.220;19.888;2022-09-09T17:16:11;32.38;;;18.33;;
72113;SDS011;59989;46.220;19.888;2022-09-09T17:19:16;36.75;;;20.65;;
72113;SDS011;59989;46.220;19.888;2022-09-09T17:22:19;26.83;;;14.23;;
72113;SDS011;59989;46.220;19.888;2022-09-09T17:25:22;27.20;;;13.00;;
72113;SDS011;59989;46.220;19.888;2022-09-09T17:28:25;22.67;;;11.43;;
72113;SDS011;59989;46.220;19.888;2022-09-09T17:31:32;14.27;;;6.80;;
72113;SDS011;59989;46.220;19.888;2022-09-09T17:34:36;19.83;;;10.93;;
72113;SDS011;59989;46.220;19.888;2022-09-09T17:37:39;16.97;;;8.70;;
72113;SDS011;59989;46.220;19.888;2022-09-09T17:40:42;15.73;;;7.60;;
72113;SDS011;59989;46.220;19.888;2022-09-09T17:43:45;15.27;;;7.00;;
72113;SDS011;59989;46.220;19.888;2022-09-09T17:46:48;18.27;;;7.88;;
72113;SDS011;59989;46.220;19.888;2022-09-09T17:49:51;17.57;;;8.07;;
72113;SDS011;59989;46.220;19.888;2022-09-09T17:52:53;14.20;;;5.73;;
72113;SDS011;59989;46.220;19.888;2022-09-09T17:56:06;12.27;;;5.20;;
72113;SDS011;59989;46.220;19.888;2022-09-09T17:59:10;13.50;;;4.38;;
72113;SDS011;59989;46.220;19.888;2022-09-09T18:02:14;13.43;;;3.97;;
72113;SDS011;59989;46.220;19.888;2022-09-09T18:05:16;10.03;;;3.60;;
72113;SDS011;59989;46.220;19.888;2022-09-09T18:08:20;12.33;;;4.67;;
72113;SDS011;59989;46.220;19.888;2022-09-09T18:11:23;9.68;;;3.88;;
72113;SDS011;59989;46.220;19.888;2022-09-09T18:14:28;9.55;;;3.90;;
72113;SDS011;59989;46.220;19.888;2022-09-09T18:17:32;9.88;;;3.40;;
72113;SDS011;59989;46.220;19.888;2022-09-09T18:20:35;7.53;;;2.75;;
72113;SDS011;59989;46.220;19.888;2022-09-09T18:23:38;9.80;;;3.30;;
72113;SDS011;59989;46.220;19.888;2022-09-09T18:26:42;12.30;;;3.45;;
72113;SDS011;59989;46.220;19.888;2022-09-09T18:29:46;8.52;;;3.08;;
72113;SDS011;59989;46.220;19.888;2022-09-09T18:32:49;8.77;;;2.80;;
72113;SDS011;59989;46.220;19.888;2022-09-09T18:35:53;10.43;;;2.90;;
72113;SDS011;59989;46.220;19.888;2022-09-09T18:38:58;11.27;;;2.70;;
72113;SDS011;59989;46.220;19.888;2022-09-09T18:42:01;8.95;;;2.60;;
72113;SDS011;59989;46.220;19.888;2022-09-09T18:45:04;9.77;;;2.47;;
72113;SDS011;59989;46.220;19.888;2022-09-09T18:48:07;8.95;;;1.75;;
72113;SDS011;59989;46.220;19.888;2022-09-09T18:51:09;9.25;;;2.03;;
72113;SDS011;59989;46.220;19.888;2022-09-09T18:54:13;6.00;;;1.53;;
72113;SDS011;59989;46.220;19.888;2022-09-09T18:57:20;4.60;;;1.13;;
72113;SDS011;59989;46.220;19.888;2022-09-09T19:00:23;7.57;;;1.52;;
72113;SDS011;59989;46.220;19.888;2022-09-09T19:03:26;6.22;;;1.63;;
72113;SDS011;59989;46.220;19.888;2022-09-09T19:06:31;7.00;;;1.80;;
72113;SDS011;59989;46.220;19.888;2022-09-09T19:09:34;6.10;;;1.50;;
72113;SDS011;59989;46.220;19.888;2022-09-09T19:12:37;7.43;;;1.55;;
72113;SDS011;59989;46.220;19.888;2022-09-09T19:15:42;8.25;;;1.90;;
72113;SDS011;59989;46.220;19.888;2022-09-09T19:18:44;6.85;;;1.60;;
72113;SDS011;59989;46.220;19.888;2022-09-09T19:21:49;8.23;;;2.03;;
72113;SDS011;59989;46.220;19.888;2022-09-09T19:24:58;7.60;;;1.83;;
72113;SDS011;59989;46.220;19.888;2022-09-09T19:28:01;9.13;;;2.00;;
72113;SDS011;59989;46.220;19.888;2022-09-09T19:31:05;6.05;;;1.70;;
72113;SDS011;59989;46.220;19.888;2022-09-09T19:34:09;7.72;;;2.00;;
72113;SDS011;59989;46.220;19.888;2022-09-09T19:37:12;6.70;;;1.70;;
72113;SDS011;59989;46.220;19.888;2022-09-09T19:40:19;8.23;;;1.87;;
72113;SDS011;59989;46.220;19.888;2022-09-09T19:43:23;7.45;;;1.80;;
72113;SDS011;59989;46.220;19.888;2022-09-09T19:46:27;7.25;;;2.00;;
72113;SDS011;59989;46.220;19.888;2022-09-09T19:49:31;6.60;;;2.00;;
72113;SDS011;59989;46.220;19.888;2022-09-09T19:52:34;7.68;;;2.40;;
72113;SDS011;59989;46.220;19.888;2022-09-09T19:55:39;9.20;;;2.77;;
72113;SDS011;59989;46.220;19.888;2022-09-09T19:58:43;9.52;;;2.88;;
72113;SDS011;59989;46.220;19.888;2022-09-09T20:01:48;9.93;;;2.65;;